createdAt,value
2019-02-08T00:00:58.609Z,8.10
2019-02-08T00:03:27.466Z,5.83
2019-02-08T00:05:56.227Z,10.47
2019-02-08T00:08:24.975Z,7.50
2019-02-08T00:10:53.797Z,7.90
2019-02-08T00:13:22.942Z,7.47
2019-02-08T00:15:51.833Z,8.73
2019-02-08T00:18:20.790Z,6.70
2019-02-08T00:20:49.424Z,9.60
2019-02-08T00:23:26.233Z,8.43
2019-02-08T00:25:48.726Z,7.87
2019-02-08T00:28:17.473Z,8.97
2019-02-08T00:30:46.153Z,10.37
2019-02-08T00:33:15.059Z,8.07
2019-02-08T00:35:44.027Z,7.83
2019-02-08T00:38:12.754Z,7.23
2019-02-08T00:40:41.918Z,7.13
2019-02-08T00:43:11.545Z,8.13
2019-02-08T00:45:40.677Z,7.87
2019-02-08T00:48:09.569Z,7.73
2019-02-08T00:50:38.305Z,7.53
2019-02-08T00:53:07.270Z,6.83
2019-02-08T00:55:35.984Z,7.40
2019-02-08T00:58:05.181Z,6.77
2019-02-08T01:00:34.162Z,6.53
2019-02-08T01:03:03.208Z,8.30
2019-02-08T01:05:31.939Z,6.27
2019-02-08T01:08:00.634Z,7.30
2019-02-08T01:10:30.488Z,7.43
2019-02-08T01:12:59.774Z,7.53
2019-02-08T01:15:29.290Z,6.90
2019-02-08T01:17:58.260Z,6.60
2019-02-08T01:20:27.388Z,7.17
2019-02-08T01:22:56.448Z,5.63
2019-02-08T01:25:26.045Z,5.33
2019-02-08T01:27:55.127Z,7.33
2019-02-08T01:30:25.795Z,6.47
2019-02-08T01:32:54.523Z,5.97
2019-02-08T01:35:24.520Z,7.00
2019-02-08T01:37:53.572Z,6.30
2019-02-08T01:40:24.821Z,5.70
2019-02-08T01:42:53.553Z,4.83
2019-02-08T01:45:24.261Z,5.13
2019-02-08T01:47:53.005Z,5.37
2019-02-08T01:50:23.856Z,5.20
2019-02-08T01:52:53.246Z,5.30
2019-02-08T01:55:22.467Z,5.63
2019-02-08T01:57:51.915Z,5.33
2019-02-08T02:00:23.728Z,5.47
2019-02-08T02:02:52.450Z,4.20
2019-02-08T02:05:21.558Z,4.80
2019-02-08T02:07:50.784Z,5.37
2019-02-08T02:10:25.585Z,4.40
2019-02-08T02:12:54.573Z,4.60
2019-02-08T02:15:23.365Z,4.63
2019-02-08T02:17:52.420Z,4.83
2019-02-08T02:20:23.231Z,5.40
2019-02-08T02:22:52.164Z,4.40
2019-02-08T02:25:21.421Z,3.07
2019-02-08T02:27:50.372Z,4.00
2019-02-08T02:30:22.513Z,4.50
2019-02-08T02:32:51.243Z,4.60
2019-02-08T02:35:20.278Z,3.73
2019-02-08T02:37:49.216Z,3.53
2019-02-08T02:40:18.427Z,4.03
2019-02-08T02:42:47.330Z,4.70
2019-02-08T02:45:27.190Z,4.27
2019-02-08T02:47:55.997Z,4.53
2019-02-08T02:50:24.808Z,3.37
2019-02-08T02:52:53.514Z,4.63
2019-02-08T02:55:23.965Z,3.63
2019-02-08T02:57:52.932Z,3.27
2019-02-08T03:00:27.768Z,4.80
2019-02-08T03:02:56.680Z,4.27
2019-02-08T03:05:25.397Z,4.20
2019-02-08T03:07:54.438Z,3.73
2019-02-08T03:10:23.355Z,4.23
2019-02-08T03:12:52.424Z,4.43
2019-02-08T03:15:23.158Z,4.63
2019-02-08T03:17:52.217Z,5.00
2019-02-08T03:20:21.452Z,4.20
2019-02-08T03:22:50.404Z,4.30
2019-02-08T03:25:21.099Z,4.40
2019-02-08T03:27:50.526Z,3.60
2019-02-08T03:30:23.490Z,5.40
2019-02-08T03:32:52.618Z,3.97
2019-02-08T03:35:22.968Z,4.33
2019-02-08T03:37:51.673Z,5.07
2019-02-08T03:40:23.193Z,4.83
2019-02-08T03:42:51.918Z,5.83
2019-02-08T03:45:20.769Z,4.10
2019-02-08T03:47:49.926Z,5.53
2019-02-08T03:50:19.678Z,5.20
2019-02-08T03:52:48.497Z,5.10
2019-02-08T03:55:18.927Z,5.30
2019-02-08T03:57:47.650Z,4.80
2019-02-08T04:00:26.432Z,5.50
2019-02-08T04:02:55.097Z,5.73
2019-02-08T04:05:24.089Z,6.10
2019-02-08T04:07:52.746Z,5.47
2019-02-08T04:10:21.610Z,5.87
2019-02-08T04:12:50.538Z,4.83
2019-02-08T04:15:19.880Z,5.67
2019-02-08T04:17:48.589Z,5.47
2019-02-08T04:20:18.080Z,6.73
2019-02-08T04:22:46.802Z,5.53
2019-02-08T04:25:16.799Z,7.00
2019-02-08T04:27:45.610Z,6.13
2019-02-08T04:30:17.981Z,7.13
2019-02-08T04:32:46.620Z,6.90
2019-02-08T04:35:15.409Z,5.50
2019-02-08T04:37:44.111Z,6.70
2019-02-08T04:40:13.441Z,7.60
2019-02-08T04:42:42.091Z,9.27
2019-02-08T04:45:11.153Z,7.50
2019-02-08T04:47:40.109Z,7.47
2019-02-08T04:50:10.836Z,9.03
2019-02-08T04:52:39.761Z,9.90
2019-02-08T04:55:08.961Z,8.63
2019-02-08T04:57:39.556Z,10.97
2019-02-08T05:00:13.300Z,10.40
2019-02-08T05:02:42.066Z,9.70
2019-02-08T05:05:11.010Z,9.90
2019-02-08T05:07:39.945Z,9.13
2019-02-08T05:10:10.757Z,9.20
2019-02-08T05:12:39.715Z,9.27
2019-02-08T05:15:08.970Z,10.07
2019-02-08T05:17:38.131Z,12.00
2019-02-08T05:20:07.301Z,12.83
2019-02-08T05:22:36.134Z,10.10
2019-02-08T05:25:05.654Z,12.60
2019-02-08T05:27:34.404Z,10.93
2019-02-08T05:30:03.436Z,11.17
2019-02-08T05:32:32.083Z,12.93
2019-02-08T05:35:00.724Z,11.83
2019-02-08T05:37:29.651Z,13.47
2019-02-08T05:39:58.520Z,12.33
2019-02-08T05:42:27.178Z,12.90
2019-02-08T05:44:56.318Z,13.33
2019-02-08T05:47:25.263Z,9.87
2019-02-08T05:49:54.170Z,11.30
2019-02-08T05:52:23.066Z,11.60
2019-02-08T05:54:54.366Z,10.57
2019-02-08T05:57:22.326Z,11.33
2019-02-08T05:59:51.008Z,10.27
2019-02-08T06:02:19.708Z,12.03
2019-02-08T06:04:48.688Z,11.70
2019-02-08T06:07:17.337Z,10.83
2019-02-08T06:09:46.439Z,12.70
2019-02-08T06:12:15.053Z,12.03
2019-02-08T06:14:44.103Z,12.63
2019-02-08T06:17:12.793Z,12.07
2019-02-08T06:19:41.685Z,10.43
2019-02-08T06:22:10.831Z,11.53
2019-02-08T06:24:39.454Z,11.33
2019-02-08T06:27:08.160Z,12.17
2019-02-08T06:29:37.246Z,11.40
2019-02-08T06:32:05.958Z,12.43
2019-02-08T06:34:34.828Z,12.27
2019-02-08T06:37:03.779Z,11.27
2019-02-08T06:39:32.648Z,13.23
2019-02-08T06:42:01.731Z,10.83
2019-02-08T06:44:30.356Z,11.40
2019-02-08T06:46:59.225Z,11.53
2019-02-08T06:49:27.960Z,12.30
2019-02-08T06:51:56.602Z,10.97
2019-02-08T06:54:25.649Z,12.53
2019-02-08T06:57:16.415Z,13.20
2019-02-08T07:00:05.248Z,11.93
2019-02-08T07:02:42.928Z,12.20
2019-02-08T07:05:25.734Z,13.80
2019-02-08T07:08:10.859Z,12.43
2019-02-08T07:10:56.552Z,11.57
2019-02-08T07:13:43.435Z,12.47
2019-02-08T07:16:17.143Z,13.77
2019-02-08T07:19:14.704Z,10.80
2019-02-08T07:21:50.964Z,11.63
2019-02-08T07:24:37.641Z,12.77
2019-02-08T07:27:23.612Z,12.80
2019-02-08T07:30:02.794Z,12.57
2019-02-08T07:32:51.645Z,12.93
2019-02-08T07:35:33.583Z,11.53
2019-02-08T07:38:23.347Z,11.83
2019-02-08T07:41:11.659Z,11.90
2019-02-08T07:44:01.033Z,11.60
2019-02-08T07:46:49.194Z,12.80
2019-02-08T07:49:29.470Z,11.70
2019-02-08T07:52:26.347Z,11.77
2019-02-08T07:55:03.963Z,11.57
2019-02-08T07:57:50.569Z,10.87
2019-02-08T08:00:41.460Z,9.47
2019-02-08T08:03:22.275Z,12.47
2019-02-08T08:06:09.272Z,12.07
2019-02-08T08:08:57.030Z,11.07
2019-02-08T08:11:38.447Z,10.10
2019-02-08T08:14:25.323Z,11.07
2019-02-08T08:17:16.270Z,10.67
2019-02-08T08:20:03.120Z,10.47
2019-02-08T08:22:51.241Z,8.37
2019-02-08T08:25:38.886Z,9.50
2019-02-08T08:28:26.767Z,8.50
2019-02-08T08:31:09.626Z,9.37
2019-02-08T08:34:00.103Z,8.20
2019-02-08T08:36:43.307Z,8.70
2019-02-08T08:39:45.145Z,9.97
2019-02-08T08:43:08.935Z,7.83
2019-02-08T08:45:48.401Z,10.17
2019-02-08T08:48:56.349Z,7.30
2019-02-08T08:52:15.138Z,9.07
2019-02-08T08:55:33.277Z,7.80
2019-02-08T08:58:38.211Z,6.83
2019-02-08T09:01:50.083Z,8.30
2019-02-08T09:04:41.924Z,7.80
2019-02-08T09:07:45.853Z,6.40
2019-02-08T09:10:48.560Z,6.83
2019-02-08T09:13:53.576Z,6.47
2019-02-08T09:17:03.090Z,6.47
2019-02-08T09:20:08.191Z,6.27
2019-02-08T09:23:03.741Z,6.00
2019-02-08T09:26:08.615Z,5.87
2019-02-08T09:29:18.761Z,6.47
2019-02-08T09:32:08.198Z,6.13
2019-02-08T09:35:02.574Z,4.80
2019-02-08T09:38:01.213Z,6.00
2019-02-08T09:40:45.139Z,5.23
2019-02-08T09:43:56.743Z,6.57
2019-02-08T09:47:12.004Z,6.40
2019-02-08T09:50:08.313Z,3.63
2019-02-08T09:53:15.287Z,5.27
2019-02-08T09:56:27.637Z,5.97
2019-02-08T09:59:21.717Z,5.60
2019-02-08T10:02:18.148Z,6.03
2019-02-08T10:05:14.613Z,4.50
2019-02-08T10:08:09.099Z,4.83
2019-02-08T10:11:19.298Z,4.90
2019-02-08T10:14:28.771Z,5.20
2019-02-08T10:17:34.332Z,5.10
2019-02-08T10:20:35.671Z,4.80
2019-02-08T10:23:42.589Z,5.70
2019-02-08T10:26:47.237Z,4.90
2019-02-08T10:29:52.092Z,4.60
2019-02-08T10:33:06.672Z,4.73
2019-02-08T10:36:17.621Z,4.87
2019-02-08T10:39:10.753Z,6.10
2019-02-08T10:42:19.537Z,5.80
2019-02-08T10:45:31.621Z,5.43
2019-02-08T10:48:33.832Z,6.40
2019-02-08T10:52:01.315Z,5.70
2019-02-08T10:55:06.484Z,6.00
2019-02-08T10:58:29.892Z,4.50
2019-02-08T11:01:41.957Z,6.37
2019-02-08T11:04:51.437Z,5.23
2019-02-08T11:07:54.191Z,5.87
2019-02-08T11:10:46.671Z,5.70
2019-02-08T11:14:08.937Z,4.73
2019-02-08T11:17:05.695Z,5.20
2019-02-08T11:19:33.344Z,5.00
2019-02-08T11:22:02.262Z,5.03
2019-02-08T11:24:31.306Z,4.63
2019-02-08T11:27:02.109Z,4.77
2019-02-08T11:29:31.158Z,5.70
2019-02-08T11:32:00.093Z,4.03
2019-02-08T11:34:29.064Z,4.93
2019-02-08T11:36:57.997Z,4.40
2019-02-08T11:39:26.732Z,4.47
2019-02-08T11:41:55.437Z,4.20
2019-02-08T11:44:24.254Z,4.40
2019-02-08T11:46:53.137Z,4.73
2019-02-08T11:49:22.253Z,4.33
2019-02-08T11:51:50.918Z,4.50
2019-02-08T11:54:19.627Z,5.23
2019-02-08T11:56:48.396Z,4.97
2019-02-08T11:59:17.870Z,4.90
2019-02-08T12:01:51.432Z,3.73
2019-02-08T12:04:20.649Z,3.50
2019-02-08T12:06:49.662Z,4.07
2019-02-08T12:09:18.572Z,5.17
2019-02-08T12:11:47.294Z,3.20
2019-02-08T12:14:16.076Z,4.40
2019-02-08T12:16:45.395Z,2.93
2019-02-08T12:19:14.118Z,3.87
2019-02-08T12:21:42.839Z,3.90
2019-02-08T12:24:11.631Z,4.87
2019-02-08T12:26:40.498Z,3.73
2019-02-08T12:29:09.519Z,4.00
2019-02-08T12:31:38.747Z,4.27
2019-02-08T12:34:08.126Z,3.90
2019-02-08T12:36:36.947Z,3.90
2019-02-08T12:39:10.220Z,4.20
2019-02-08T12:41:39.460Z,4.40
2019-02-08T12:44:08.651Z,3.50
2019-02-08T12:46:37.802Z,4.07
2019-02-08T12:49:06.618Z,4.10
2019-02-08T12:51:35.790Z,4.47
2019-02-08T12:54:04.621Z,4.57
2019-02-08T12:56:33.514Z,4.33
2019-02-08T12:59:02.468Z,3.20
2019-02-08T13:01:37.615Z,4.13
2019-02-08T13:04:01.442Z,3.63
2019-02-08T13:06:30.116Z,3.80
2019-02-08T13:08:59.011Z,4.43
2019-02-08T13:11:27.707Z,4.20
2019-02-08T13:13:56.330Z,4.23
2019-02-08T13:16:25.059Z,4.83
2019-02-08T13:22:19.547Z,4.20
2019-02-08T13:24:48.234Z,4.47
2019-02-08T13:27:17.112Z,4.33
2019-02-08T13:29:45.732Z,4.17
2019-02-08T13:32:14.876Z,4.00
2019-02-08T13:34:43.537Z,3.90
2019-02-08T13:37:12.159Z,3.77
2019-02-08T13:39:41.033Z,3.20
2019-02-08T13:42:09.972Z,4.97
2019-02-08T13:44:38.799Z,4.10
2019-02-08T13:47:07.742Z,4.50
2019-02-08T13:49:36.471Z,4.23
2019-02-08T13:52:05.471Z,4.60
2019-02-08T13:54:34.130Z,4.50
2019-02-08T13:57:02.777Z,3.43
2019-02-08T13:59:33.380Z,3.70
2019-02-08T14:02:02.250Z,4.33
2019-02-08T14:04:30.897Z,3.33
2019-02-08T14:06:59.900Z,3.77
2019-02-08T14:09:28.889Z,4.03
2019-02-08T14:11:57.798Z,3.67
2019-02-08T14:14:26.410Z,3.73
2019-02-08T14:16:55.091Z,4.50
2019-02-08T14:19:24.309Z,3.97
2019-02-08T14:21:53.262Z,3.80
2019-02-08T14:24:22.153Z,3.57
2019-02-08T14:26:50.786Z,3.70
2019-02-08T14:29:19.686Z,3.90
2019-02-08T14:31:48.528Z,3.43
2019-02-08T14:34:17.155Z,3.80
2019-02-08T14:36:45.826Z,3.73
2019-02-08T14:39:14.489Z,3.53
2019-02-08T14:41:43.367Z,3.13
2019-02-08T14:44:12.316Z,3.30
2019-02-08T14:46:41.290Z,3.50
2019-02-08T14:49:10.218Z,3.40
2019-02-08T14:51:39.188Z,3.97
2019-02-08T14:54:08.141Z,2.87
2019-02-08T14:56:36.843Z,3.87
2019-02-08T14:59:05.984Z,2.80
2019-02-08T15:01:34.862Z,3.20
2019-02-08T15:04:03.962Z,3.50
2019-02-08T15:06:32.597Z,3.30
2019-02-08T15:09:01.301Z,3.17
2019-02-08T15:11:30.136Z,3.17
2019-02-08T15:13:59.021Z,3.30
2019-02-08T15:16:29.702Z,3.13
2019-02-08T15:19:06.104Z,3.00
2019-02-08T15:21:35.051Z,3.77
2019-02-08T15:24:04.011Z,2.97
2019-02-08T15:26:33.185Z,3.13
2019-02-08T15:29:02.078Z,3.80
2019-02-08T15:31:30.983Z,3.10
2019-02-08T15:33:59.957Z,3.10
2019-02-08T15:36:28.705Z,3.57
2019-02-08T15:38:57.391Z,3.00
2019-02-08T15:41:26.272Z,3.47
2019-02-08T15:43:55.187Z,2.83
2019-02-08T15:46:23.839Z,2.90
2019-02-08T15:48:52.481Z,3.20
2019-02-08T15:51:21.241Z,3.23
2019-02-08T15:53:50.100Z,2.83
2019-02-08T15:56:18.822Z,3.20
2019-02-08T15:58:47.542Z,2.57
2019-02-08T16:01:16.288Z,3.20
2019-02-08T16:03:45.227Z,2.87
2019-02-08T16:06:14.399Z,2.63
2019-02-08T16:08:52.670Z,2.73
2019-02-08T16:11:21.847Z,2.77
2019-02-08T16:13:50.479Z,2.90
2019-02-08T16:16:19.929Z,2.90
2019-02-08T16:18:48.829Z,2.80
2019-02-08T16:21:17.511Z,2.80
2019-02-08T16:23:46.215Z,3.30
2019-02-08T16:26:14.830Z,2.73
2019-02-08T16:28:43.688Z,3.27
2019-02-08T16:31:12.828Z,3.17
2019-02-08T16:33:41.549Z,3.20
2019-02-08T16:36:10.587Z,3.07
2019-02-08T16:38:39.454Z,2.60
2019-02-08T16:41:08.452Z,2.70
2019-02-08T16:43:37.325Z,2.80
2019-02-08T16:46:06.071Z,2.80
2019-02-08T16:48:34.838Z,2.87
2019-02-08T16:51:03.797Z,3.37
2019-02-08T16:53:32.698Z,3.17
2019-02-08T16:56:01.364Z,2.63
2019-02-08T16:58:30.321Z,3.17
2019-02-08T17:00:59.411Z,3.37
2019-02-08T17:03:28.299Z,3.53
2019-02-08T17:05:57.253Z,3.90
2019-02-08T17:08:26.404Z,3.33
2019-02-08T17:10:55.357Z,4.00
2019-02-08T17:13:23.993Z,2.70
2019-02-08T17:15:53.184Z,3.60
2019-02-08T17:18:21.945Z,2.83
2019-02-08T17:20:50.993Z,4.07
2019-02-08T17:23:19.621Z,3.70
2019-02-08T17:25:48.298Z,3.40
2019-02-08T17:28:17.426Z,3.50
2019-02-08T17:30:47.790Z,3.10
2019-02-08T17:33:16.698Z,3.20
2019-02-08T17:35:45.590Z,3.30
2019-02-08T17:38:14.673Z,4.30
2019-02-08T17:40:45.918Z,3.57
2019-02-08T17:43:14.906Z,3.50
2019-02-08T17:45:44.543Z,3.70
2019-02-08T17:48:14.984Z,3.87
2019-02-08T17:50:43.805Z,4.37
2019-02-08T17:53:12.541Z,3.73
2019-02-08T17:55:41.511Z,3.70
2019-02-08T17:58:10.460Z,3.50
2019-02-08T18:00:50.179Z,3.43
2019-02-08T18:03:19.132Z,4.53
2019-02-08T18:05:48.100Z,3.30
2019-02-08T18:08:17.093Z,4.93
2019-02-08T18:10:45.722Z,4.63
2019-02-08T18:13:14.899Z,4.33
2019-02-08T18:15:43.768Z,4.77
2019-02-08T18:18:15.218Z,4.47
2019-02-08T18:20:46.351Z,4.60
2019-02-08T18:23:15.232Z,3.90
2019-02-08T18:25:43.833Z,5.00
2019-02-08T18:28:12.550Z,5.20
2019-02-08T18:30:41.507Z,4.17
2019-02-08T18:33:10.733Z,4.90
2019-02-08T18:35:39.854Z,4.67
2019-02-08T18:38:08.867Z,5.30
2019-02-08T18:40:37.597Z,5.40
2019-02-08T18:43:06.300Z,5.10
2019-02-08T18:45:35.178Z,4.50
2019-02-08T18:48:04.612Z,5.87
2019-02-08T18:50:38.347Z,5.23
2019-02-08T18:53:07.377Z,5.67
2019-02-08T18:55:36.010Z,6.27
2019-02-08T18:58:05.352Z,5.67
2019-02-08T19:00:40.045Z,5.03
2019-02-08T19:03:07.614Z,4.50
2019-02-08T19:05:36.533Z,5.60
2019-02-08T19:08:07.136Z,5.87
2019-02-08T19:10:35.773Z,5.90
2019-02-08T19:13:04.905Z,5.10
2019-02-08T19:15:33.617Z,4.93
2019-02-08T19:18:02.669Z,4.90
2019-02-08T19:20:31.565Z,5.27
2019-02-08T19:23:00.271Z,5.53
2019-02-08T19:25:37.374Z,5.70
2019-02-08T19:28:07.252Z,6.20
2019-02-08T19:30:37.060Z,5.63
2019-02-08T19:33:06.893Z,5.33
2019-02-08T19:35:36.132Z,4.73
2019-02-08T19:38:05.652Z,4.93
2019-02-08T19:40:36.245Z,5.20
2019-02-08T19:43:05.813Z,4.43
2019-02-08T19:45:35.132Z,4.57
2019-02-08T19:48:04.217Z,4.13
2019-02-08T19:50:35.150Z,4.43
2019-02-08T19:53:04.471Z,4.93
2019-02-08T19:55:33.294Z,4.27
2019-02-08T19:58:01.925Z,3.93
2019-02-08T20:00:32.738Z,3.60
2019-02-08T20:03:02.836Z,4.17
2019-02-08T20:05:31.481Z,4.27
2019-02-08T20:08:00.442Z,3.60
2019-02-08T20:10:31.371Z,3.70
2019-02-08T20:16:40.766Z,4.33
2019-02-08T20:19:09.425Z,3.17
2019-02-08T20:21:38.412Z,3.40
2019-02-08T20:24:07.044Z,4.17
2019-02-08T20:26:36.900Z,3.13
2019-02-08T20:29:05.530Z,3.50
2019-02-08T20:31:34.427Z,3.40
2019-02-08T20:34:03.352Z,4.10
2019-02-08T20:36:32.309Z,3.43
2019-02-08T20:39:01.436Z,3.83
2019-02-08T20:41:30.321Z,3.20
2019-02-08T20:43:59.230Z,3.60
2019-02-08T20:46:28.242Z,3.20
2019-02-08T20:48:56.875Z,2.47
2019-02-08T20:51:25.561Z,3.43
2019-02-08T20:53:54.524Z,2.80
2019-02-08T20:56:23.606Z,3.13
2019-02-08T20:58:52.210Z,3.43
2019-02-08T21:01:21.286Z,2.93
2019-02-08T21:03:50.232Z,3.40
2019-02-08T21:06:18.954Z,3.33
2019-02-08T21:08:50.032Z,3.20
2019-02-08T21:11:18.933Z,3.40
2019-02-08T21:13:47.582Z,3.30
2019-02-08T21:16:16.599Z,2.67
2019-02-08T21:18:45.219Z,3.17
2019-02-08T21:21:16.919Z,3.10
2019-02-08T21:23:45.558Z,3.60
2019-02-08T21:26:15.371Z,2.90
2019-02-08T21:28:43.968Z,2.87
2019-02-08T21:31:12.615Z,2.73
2019-02-08T21:33:41.887Z,3.20
2019-02-08T21:36:10.779Z,3.57
2019-02-08T21:38:40.089Z,3.00
2019-02-08T21:41:09.122Z,2.83
2019-02-08T21:43:37.973Z,3.17
2019-02-08T21:46:06.876Z,3.30
2019-02-08T21:48:38.312Z,2.90
2019-02-08T21:51:07.410Z,2.50
2019-02-08T21:53:36.030Z,3.00
2019-02-08T21:56:05.194Z,2.60
2019-02-08T21:58:34.207Z,2.77
2019-02-08T22:01:03.105Z,2.80
2019-02-08T22:03:32.087Z,2.63
2019-02-08T22:06:03.213Z,2.40
2019-02-08T22:08:32.208Z,2.57
2019-02-08T22:11:00.822Z,2.50
2019-02-08T22:13:29.785Z,1.97
2019-02-08T22:15:58.781Z,2.50
2019-02-08T22:18:27.671Z,2.60
2019-02-08T22:20:56.662Z,2.10
2019-02-08T22:23:25.760Z,1.97
2019-02-08T22:25:54.459Z,2.40
2019-02-08T22:28:23.089Z,2.40
2019-02-08T22:30:52.171Z,2.60
2019-02-08T22:33:21.367Z,2.23
2019-02-08T22:35:50.422Z,2.30
2019-02-08T22:38:19.408Z,2.33
2019-02-08T22:40:48.401Z,2.80
2019-02-08T22:43:17.293Z,2.73
2019-02-08T22:45:45.921Z,2.70
2019-02-08T22:48:15.284Z,2.87
2019-02-08T22:50:44.007Z,2.63
2019-02-08T22:53:13.065Z,2.40
2019-02-08T22:55:41.703Z,1.97
2019-02-08T22:58:10.513Z,2.70
2019-02-08T23:01:17.004Z,2.60
2019-02-08T23:03:46.107Z,2.60
2019-02-08T23:06:15.111Z,2.53
2019-02-08T23:08:44.090Z,4.20
2019-02-08T23:11:13.197Z,2.30
2019-02-08T23:13:42.196Z,2.43
2019-02-08T23:16:11.594Z,2.43
2019-02-08T23:18:40.485Z,2.43
2019-02-08T23:21:09.217Z,2.20
2019-02-08T23:23:37.894Z,2.20
2019-02-08T23:26:06.847Z,2.00
2019-02-08T23:28:35.574Z,2.33
2019-02-08T23:31:04.640Z,2.00
2019-02-08T23:33:33.307Z,2.30
2019-02-08T23:36:03.438Z,2.27
2019-02-08T23:38:32.452Z,2.20
2019-02-08T23:41:01.323Z,2.30
2019-02-08T23:43:30.318Z,2.40
2019-02-08T23:45:59.210Z,2.23
2019-02-08T23:48:27.912Z,2.10
2019-02-08T23:50:56.544Z,2.70
2019-02-08T23:53:25.780Z,2.63
2019-02-08T23:55:54.772Z,2.63
2019-02-08T23:58:23.972Z,2.60
